Terminal Aerodrome Forecast
Issued by NWS Louisville, KY

Home | Current Version | Previous Version | Text Only | Print | Product List | Glossary On
Versions: 1 2 3 4 5 6 7 8 9 10 11 12 13 14 15 16 17 18 19 20 21 22 23 24
825
FTUS43 KLMK 290535
TAFSDF
TAF
KSDF 290535Z 2906/3012 28005KT P6SM SCT040 BKN150
     FM290700 30005KT 5SM BR BKN015
     FM291800 35005KT P6SM VCSH BKN025
     FM292300 VRB03KT P6SM BKN035=

USA.gov is the U.S. government's official web portal to all federal, state and local government web resources and services.